createdAt,value
2023-10-10T00:00:22.844Z,100528.09
2023-10-10T00:03:28.912Z,100523.69
2023-10-10T00:06:31.430Z,100528.25
2023-10-10T00:09:34.346Z,100525.50
2023-10-10T00:12:37.926Z,100518.31
2023-10-10T00:15:51.384Z,100519.19
2023-10-10T00:18:57.427Z,100507.44
2023-10-10T00:22:03.008Z,100504.06
2023-10-10T00:25:13.470Z,100521.81
2023-10-10T00:28:19.587Z,100522.75
2023-10-10T00:31:27.553Z,100520.97
2023-10-10T00:34:30.356Z,100513.75
2023-10-10T00:37:35.833Z,100523.59
2023-10-10T00:40:40.979Z,100527.16
2023-10-10T00:43:43.880Z,100520.91
2023-10-10T00:46:52.924Z,100525.28
2023-10-10T00:49:56.085Z,100523.50
2023-10-10T00:53:01.464Z,100520.78
2023-10-10T00:56:08.045Z,100513.53
2023-10-10T00:59:11.922Z,100517.16
2023-10-10T01:02:17.955Z,100512.66
2023-10-10T01:05:34.061Z,100513.53
2023-10-10T01:09:05.168Z,100525.28
2023-10-10T01:12:08.149Z,100517.16
2023-10-10T01:15:35.755Z,100525.28
2023-10-10T01:18:52.546Z,100522.53
2023-10-10T01:21:59.202Z,100520.72
2023-10-10T01:25:07.008Z,100522.56
2023-10-10T01:28:15.119Z,100519.88
2023-10-10T01:31:19.447Z,100524.38
2023-10-10T01:34:45.697Z,100527.88
2023-10-10T01:37:56.182Z,100524.25
2023-10-10T01:41:05.260Z,100522.44
2023-10-10T01:44:13.172Z,100523.34
2023-10-10T01:47:27.538Z,100526.94
2023-10-10T01:50:34.767Z,100521.47
2023-10-10T01:53:41.460Z,100526.78
2023-10-10T01:56:44.236Z,100524.03
2023-10-10T01:59:46.660Z,100525.75
2023-10-10T02:02:54.535Z,100524.84
2023-10-10T02:05:57.469Z,100535.69
2023-10-10T02:09:13.276Z,100526.69
2023-10-10T02:12:23.225Z,100536.69
2023-10-10T02:15:28.142Z,100530.41
2023-10-10T02:18:49.933Z,100541.31
2023-10-10T02:22:04.653Z,100539.53
2023-10-10T02:25:26.438Z,100546.78
2023-10-10T02:28:47.337Z,100541.38
2023-10-10T02:32:07.441Z,100538.72
2023-10-10T02:35:27.780Z,100538.72
2023-10-10T02:38:41.371Z,100530.62
2023-10-10T02:41:50.058Z,100539.72
2023-10-10T02:44:58.559Z,100539.75
2023-10-10T02:48:08.159Z,100541.53
2023-10-10T02:51:16.876Z,100539.78
2023-10-10T02:54:21.897Z,100533.50
2023-10-10T02:57:27.454Z,100545.25
2023-10-10T03:00:29.936Z,100532.69
2023-10-10T03:03:40.965Z,100546.22
2023-10-10T03:06:45.534Z,100538.00
2023-10-10T03:10:13.324Z,100541.69
2023-10-10T03:13:33.986Z,100538.03
2023-10-10T03:16:45.415Z,100526.31
2023-10-10T03:19:51.851Z,100534.44
2023-10-10T03:23:06.794Z,100525.53
2023-10-10T03:26:19.852Z,100540.09
2023-10-10T03:29:28.361Z,100533.94
2023-10-10T03:32:35.575Z,100533.16
2023-10-10T03:36:00.366Z,100535.81
2023-10-10T03:39:21.780Z,100536.78
2023-10-10T03:42:46.595Z,100534.09
2023-10-10T03:46:07.697Z,100541.34
2023-10-10T03:49:28.802Z,100538.66
2023-10-10T03:52:49.721Z,100541.41
2023-10-10T03:56:11.395Z,100538.75
2023-10-10T03:59:39.805Z,100527.06
2023-10-10T04:03:01.090Z,100527.16
2023-10-10T04:06:26.413Z,100524.56
2023-10-10T04:09:48.590Z,100522.13
2023-10-10T04:13:10.127Z,100514.31
2023-10-10T04:16:31.095Z,100534.12
2023-10-10T04:19:52.295Z,100531.50
2023-10-10T04:23:34.134Z,100544.03
2023-10-10T04:26:55.388Z,100541.25
2023-10-10T04:30:16.234Z,100546.66
2023-10-10T04:33:37.657Z,100541.28
2023-10-10T04:36:58.555Z,100521.75
2023-10-10T04:40:19.629Z,100537.91
2023-10-10T04:43:54.884Z,100536.22
2023-10-10T04:47:15.951Z,100530.97
2023-10-10T04:50:36.975Z,100540.19
2023-10-10T04:53:58.083Z,100536.78
2023-10-10T04:57:19.141Z,100538.94
2023-10-10T05:00:40.187Z,100547.31
2023-10-10T05:04:03.835Z,100553.81
2023-10-10T05:07:25.341Z,100555.75
2023-10-10T05:10:46.454Z,100555.97
2023-10-10T05:14:10.186Z,100561.28
2023-10-10T05:17:31.584Z,100560.66
2023-10-10T05:20:53.283Z,100563.38
2023-10-10T05:23:55.665Z,100567.78
2023-10-10T05:26:58.373Z,100561.94
2023-10-10T05:30:01.712Z,100571.28
2023-10-10T05:33:05.314Z,100575.97
2023-10-10T05:36:08.028Z,100566.97
2023-10-10T05:39:15.856Z,100573.28
2023-10-10T05:42:21.956Z,100575.16
2023-10-10T05:45:24.703Z,100580.44
2023-10-10T05:48:27.846Z,100583.06
2023-10-10T05:51:31.056Z,100584.09
2023-10-10T05:54:33.402Z,100583.06
2023-10-10T05:57:37.662Z,100579.31
2023-10-10T06:00:42.994Z,100583.84
2023-10-10T06:03:46.390Z,100582.75
2023-10-10T06:06:48.880Z,100593.34
2023-10-10T06:09:53.036Z,100598.56
2023-10-10T06:12:58.350Z,100595.59
2023-10-10T06:16:14.288Z,100609.59
2023-10-10T06:19:22.464Z,100620.94
2023-10-10T06:22:25.958Z,100623.87
2023-10-10T06:25:30.279Z,100621.62
2023-10-10T06:28:46.338Z,100621.88
2023-10-10T06:31:50.432Z,100614.38
2023-10-10T06:35:13.725Z,100618.28
2023-10-10T06:38:16.251Z,100623.56
2023-10-10T06:41:23.566Z,100637.91
2023-10-10T06:44:36.738Z,100626.34
2023-10-10T06:47:46.169Z,100630.31
2023-10-10T06:50:51.399Z,100635.50
2023-10-10T06:53:56.161Z,100625.16
2023-10-10T06:57:01.706Z,100639.41
2023-10-10T07:00:29.387Z,100645.09
2023-10-10T07:03:34.792Z,100645.56
2023-10-10T07:06:37.525Z,100644.78
2023-10-10T07:09:43.685Z,100635.31
2023-10-10T07:12:48.554Z,100635.22
2023-10-10T07:15:54.288Z,100637.34
2023-10-10T07:18:57.454Z,100645.41
2023-10-10T07:22:01.481Z,100642.84
2023-10-10T07:25:09.210Z,100648.16
2023-10-10T07:28:15.345Z,100650.94
2023-10-10T07:31:24.929Z,100650.37
2023-10-10T07:34:36.309Z,100659.22
2023-10-10T07:37:39.893Z,100657.41
2023-10-10T07:40:42.522Z,100671.37
2023-10-10T07:43:50.742Z,100672.09
2023-10-10T07:47:28.801Z,100671.94
2023-10-10T07:50:48.796Z,100682.88
2023-10-10T07:54:01.159Z,100680.59
2023-10-10T07:57:08.580Z,100663.22
2023-10-10T08:00:18.467Z,100683.75
2023-10-10T08:03:21.408Z,100683.41
2023-10-10T08:06:24.662Z,100675.25
2023-10-10T08:09:30.938Z,100670.75
2023-10-10T08:12:33.392Z,100668.63
2023-10-10T08:15:36.624Z,100666.84
2023-10-10T08:18:47.629Z,100677.87
2023-10-10T08:21:51.048Z,100682.88
2023-10-10T08:24:53.764Z,100668.66
2023-10-10T08:27:57.419Z,100664.31
2023-10-10T08:31:01.209Z,100660.44
2023-10-10T08:34:05.120Z,100668.81
2023-10-10T08:37:10.180Z,100677.66
2023-10-10T08:40:20.990Z,100671.75
2023-10-10T08:43:27.500Z,100678.44
2023-10-10T08:46:33.514Z,100678.84
2023-10-10T08:49:36.629Z,100686.59
2023-10-10T08:52:41.245Z,100685.13
2023-10-10T08:55:43.872Z,100686.59
2023-10-10T08:58:47.713Z,100697.91
2023-10-10T09:01:50.230Z,100699.38
2023-10-10T09:04:52.890Z,100712.22
2023-10-10T09:07:56.747Z,100705.53
2023-10-10T09:10:59.947Z,100706.50
2023-10-10T09:14:04.569Z,100707.78
2023-10-10T09:17:10.067Z,100720.69
2023-10-10T09:20:32.786Z,100717.91
2023-10-10T09:23:43.823Z,100719.97
2023-10-10T09:26:52.192Z,100725.28
2023-10-10T09:29:57.433Z,100730.22
2023-10-10T09:33:14.090Z,100723.28
2023-10-10T09:36:27.889Z,100721.00
2023-10-10T09:39:38.300Z,100734.12
2023-10-10T09:42:54.112Z,100740.31
2023-10-10T09:46:12.207Z,100742.37
2023-10-10T09:49:30.292Z,100748.81
2023-10-10T09:52:51.700Z,100757.56
2023-10-10T09:55:55.014Z,100758.09
2023-10-10T09:59:00.543Z,100752.22
2023-10-10T10:02:07.046Z,100750.50
2023-10-10T10:05:18.457Z,100747.38
2023-10-10T10:08:24.806Z,100726.84
2023-10-10T10:11:34.917Z,100737.78
2023-10-10T10:14:48.481Z,100736.69
2023-10-10T10:18:15.301Z,100736.88
2023-10-10T10:21:20.196Z,100730.44
2023-10-10T10:24:34.196Z,100726.56
2023-10-10T10:27:40.350Z,100723.50
2023-10-10T10:30:51.632Z,100730.03
2023-10-10T10:34:24.355Z,100721.00
2023-10-10T10:37:29.425Z,100715.00
2023-10-10T10:40:42.287Z,100714.97
2023-10-10T10:43:52.205Z,100700.03
2023-10-10T10:46:57.863Z,100691.00
2023-10-10T10:50:01.998Z,100684.13
2023-10-10T10:53:09.769Z,100687.31
2023-10-10T10:56:19.184Z,100674.16
2023-10-10T10:59:21.875Z,100677.06
2023-10-10T11:02:31.578Z,100677.19
2023-10-10T11:05:34.294Z,100673.00
2023-10-10T11:09:07.165Z,100677.59
2023-10-10T11:12:10.415Z,100678.25
2023-10-10T11:15:13.400Z,100674.63
2023-10-10T11:18:25.285Z,100666.53
2023-10-10T11:21:28.948Z,100673.59
2023-10-10T11:24:33.124Z,100682.28
2023-10-10T11:27:45.597Z,100681.63
2023-10-10T11:30:48.675Z,100682.56
2023-10-10T11:34:10.881Z,100675.25
2023-10-10T11:37:33.706Z,100669.72
2023-10-10T11:40:37.915Z,100674.31
2023-10-10T11:44:02.876Z,100677.28
2023-10-10T11:47:09.010Z,100677.03
2023-10-10T11:50:14.876Z,100672.88
2023-10-10T11:53:24.975Z,100671.44
2023-10-10T11:56:27.970Z,100676.00
2023-10-10T11:59:33.836Z,100668.53
2023-10-10T12:02:41.239Z,100670.38
2023-10-10T12:05:49.941Z,100669.78
2023-10-10T12:08:54.499Z,100664.00
2023-10-10T12:12:00.854Z,100665.13
2023-10-10T12:15:04.036Z,100666.03
2023-10-10T12:18:12.912Z,100661.50
2023-10-10T12:21:16.331Z,100664.91
2023-10-10T12:24:19.151Z,100675.62
2023-10-10T12:27:21.821Z,100666.69
2023-10-10T12:30:26.342Z,100665.81
2023-10-10T12:33:28.938Z,100664.63
2023-10-10T12:36:33.856Z,100659.22
2023-10-10T12:39:38.286Z,100659.00
2023-10-10T12:42:40.984Z,100657.31
2023-10-10T12:45:43.418Z,100661.38
2023-10-10T12:48:47.564Z,100661.00
2023-10-10T12:51:50.044Z,100669.97
2023-10-10T12:54:59.666Z,100657.66
2023-10-10T12:58:10.567Z,100652.66
2023-10-10T13:01:23.829Z,100661.19
2023-10-10T13:04:37.610Z,100658.31
2023-10-10T13:07:42.538Z,100662.22
2023-10-10T13:10:45.826Z,100654.03
2023-10-10T13:13:52.667Z,100646.66
2023-10-10T13:17:03.004Z,100661.19
2023-10-10T13:20:06.572Z,100658.31
2023-10-10T13:23:08.997Z,100650.06
2023-10-10T13:26:11.789Z,100649.44
2023-10-10T13:29:18.126Z,100652.72
2023-10-10T13:32:21.758Z,100641.78
2023-10-10T13:35:24.558Z,100631.81
2023-10-10T13:38:27.311Z,100643.78
2023-10-10T13:41:29.760Z,100634.63
2023-10-10T13:44:34.930Z,100637.06
2023-10-10T13:47:41.840Z,100629.66
2023-10-10T13:50:46.163Z,100636.75
2023-10-10T13:53:49.081Z,100630.75
2023-10-10T13:56:51.904Z,100625.69
2023-10-10T13:59:55.717Z,100627.47
2023-10-10T14:03:06.874Z,100635.75
2023-10-10T14:06:11.579Z,100630.00
2023-10-10T14:09:25.619Z,100634.56
2023-10-10T14:12:33.553Z,100631.34
2023-10-10T14:15:36.355Z,100638.06
2023-10-10T14:18:48.214Z,100624.06
2023-10-10T14:21:53.818Z,100642.75
2023-10-10T14:24:56.552Z,100635.25
2023-10-10T14:27:59.459Z,100635.62
2023-10-10T14:31:02.199Z,100632.41
2023-10-10T14:34:06.689Z,100630.19
2023-10-10T14:37:20.390Z,100635.78
2023-10-10T14:40:29.684Z,100628.28
2023-10-10T14:43:34.244Z,100630.06
2023-10-10T14:46:36.677Z,100625.62
2023-10-10T14:49:40.104Z,100634.69
2023-10-10T14:52:48.691Z,100626.03
2023-10-10T14:55:54.889Z,100628.69
2023-10-10T14:58:57.333Z,100631.53
2023-10-10T15:02:05.529Z,100635.44
2023-10-10T15:05:12.394Z,100631.13
2023-10-10T15:08:15.524Z,100637.47
2023-10-10T15:11:17.873Z,100632.19
2023-10-10T15:14:20.833Z,100641.50
2023-10-10T15:17:23.369Z,100641.81
2023-10-10T15:20:28.172Z,100635.62
2023-10-10T15:23:30.619Z,100643.06
2023-10-10T15:26:35.849Z,100641.28
2023-10-10T15:29:43.178Z,100635.06
2023-10-10T15:32:49.179Z,100637.91
2023-10-10T15:35:53.752Z,100638.91
2023-10-10T15:38:56.767Z,100650.78
2023-10-10T15:42:00.514Z,100649.06
2023-10-10T15:45:06.182Z,100653.69
2023-10-10T15:48:22.912Z,100647.47
2023-10-10T15:51:27.067Z,100654.06
2023-10-10T15:54:34.806Z,100658.00
2023-10-10T15:57:38.207Z,100653.81
2023-10-10T16:00:40.738Z,100666.81
2023-10-10T16:03:49.432Z,100660.75
2023-10-10T16:06:51.968Z,100665.56
2023-10-10T16:09:54.658Z,100670.41
2023-10-10T16:12:56.996Z,100675.91
2023-10-10T16:15:59.712Z,100672.25
2023-10-10T16:19:05.573Z,100675.91
2023-10-10T16:22:08.269Z,100672.31
2023-10-10T16:25:14.518Z,100673.25
2023-10-10T16:28:20.581Z,100678.75
2023-10-10T16:31:33.369Z,100683.66
2023-10-10T16:34:41.456Z,100689.25
2023-10-10T16:37:45.547Z,100683.28
2023-10-10T16:40:51.229Z,100681.22
2023-10-10T16:44:00.934Z,100692.09
2023-10-10T16:47:05.027Z,100693.47
2023-10-10T16:50:08.017Z,100693.19
2023-10-10T16:53:12.845Z,100699.16
2023-10-10T16:56:15.770Z,100699.78
2023-10-10T16:59:18.691Z,100695.72
2023-10-10T17:02:21.426Z,100711.50
2023-10-10T17:05:24.994Z,100704.66
2023-10-10T17:08:27.517Z,100703.09
2023-10-10T17:11:30.309Z,100703.47
2023-10-10T17:14:37.726Z,100713.78
2023-10-10T17:17:45.669Z,100716.66
2023-10-10T17:20:48.575Z,100719.66
2023-10-10T17:23:52.423Z,100718.13
2023-10-10T17:26:55.249Z,100710.06
2023-10-10T17:29:58.693Z,100718.69
2023-10-10T17:33:02.886Z,100717.97
2023-10-10T17:36:08.749Z,100729.03
2023-10-10T17:39:16.234Z,100730.06
2023-10-10T17:42:23.850Z,100738.00
2023-10-10T17:45:26.570Z,100746.94
2023-10-10T17:48:32.261Z,100744.94
2023-10-10T17:51:35.301Z,100745.69
2023-10-10T17:54:41.745Z,100741.31
2023-10-10T17:57:45.087Z,100742.37
2023-10-10T18:00:53.896Z,100739.97
2023-10-10T18:03:57.185Z,100744.78
2023-10-10T18:07:01.265Z,100750.50
2023-10-10T18:10:09.471Z,100743.47
2023-10-10T18:13:11.960Z,100742.09
2023-10-10T18:16:15.686Z,100754.00
2023-10-10T18:19:18.901Z,100753.22
2023-10-10T18:22:22.188Z,100756.22
2023-10-10T18:25:25.080Z,100768.00
2023-10-10T18:28:31.371Z,100758.91
2023-10-10T18:31:39.643Z,100765.28
2023-10-10T18:34:43.266Z,100765.50
2023-10-10T18:37:49.006Z,100760.28
2023-10-10T18:40:54.729Z,100763.03
2023-10-10T18:43:58.516Z,100761.16
2023-10-10T18:47:02.914Z,100767.50
2023-10-10T18:50:06.677Z,100769.37
2023-10-10T18:53:09.540Z,100771.41
2023-10-10T18:56:12.425Z,100775.25
2023-10-10T18:59:15.444Z,100780.03
2023-10-10T19:02:18.145Z,100783.94
2023-10-10T19:05:21.153Z,100784.78
2023-10-10T19:08:23.959Z,100791.28
2023-10-10T19:11:28.222Z,100795.22
2023-10-10T19:14:35.243Z,100799.75
2023-10-10T19:17:41.114Z,100799.97
2023-10-10T19:20:44.510Z,100795.50
2023-10-10T19:23:53.549Z,100792.16
2023-10-10T19:26:56.205Z,100805.75
2023-10-10T19:29:59.368Z,100800.31
2023-10-10T19:33:02.355Z,100808.47
2023-10-10T19:36:09.116Z,100813.69
2023-10-10T19:39:12.049Z,100805.78
2023-10-10T19:42:18.786Z,100809.28
2023-10-10T19:45:27.544Z,100805.81
2023-10-10T19:48:30.526Z,100801.53
2023-10-10T19:51:33.164Z,100797.91
2023-10-10T19:54:36.078Z,100803.47
2023-10-10T19:57:38.532Z,100804.31
2023-10-10T20:00:44.430Z,100805.34
2023-10-10T20:03:47.869Z,100808.06
2023-10-10T20:06:51.596Z,100800.91
2023-10-10T20:09:54.278Z,100801.03
2023-10-10T20:12:56.668Z,100791.97
2023-10-10T20:15:59.435Z,100795.84
2023-10-10T20:19:01.994Z,100798.53
2023-10-10T20:22:05.212Z,100807.66
2023-10-10T20:25:07.665Z,100804.06
2023-10-10T20:28:11.029Z,100811.16
2023-10-10T20:31:14.485Z,100809.53
2023-10-10T20:34:17.306Z,100814.22
2023-10-10T20:37:21.480Z,100813.31
2023-10-10T20:40:25.741Z,100818.78
2023-10-10T20:43:28.139Z,100807.28
2023-10-10T20:46:32.587Z,100815.38
2023-10-10T20:49:37.787Z,100816.28
2023-10-10T20:52:41.813Z,100800.22
2023-10-10T20:55:47.421Z,100797.56
2023-10-10T20:58:51.849Z,100794.94
2023-10-10T21:01:54.265Z,100800.41
2023-10-10T21:04:56.926Z,100809.44
2023-10-10T21:07:59.669Z,100809.59
2023-10-10T21:11:08.526Z,100815.00
2023-10-10T21:14:11.784Z,100820.44
2023-10-10T21:17:17.542Z,100830.22
2023-10-10T21:20:31.887Z,100830.28
2023-10-10T21:23:34.941Z,100838.28
2023-10-10T21:26:37.355Z,100831.84
2023-10-10T21:29:40.309Z,100827.28
2023-10-10T21:32:42.869Z,100825.44
2023-10-10T21:35:45.853Z,100823.66
2023-10-10T21:38:48.413Z,100820.06
2023-10-10T21:41:51.166Z,100818.28
2023-10-10T21:44:53.613Z,100814.66
2023-10-10T21:47:56.581Z,100813.78
2023-10-10T21:51:00.746Z,100814.69
2023-10-10T21:54:04.496Z,100824.66
2023-10-10T21:57:06.970Z,100823.63
2023-10-10T22:00:21.063Z,100822.72
2023-10-10T22:03:24.183Z,100811.09
2023-10-10T22:06:29.004Z,100824.56
2023-10-10T22:09:33.730Z,100822.66
2023-10-10T22:12:37.395Z,100819.00
2023-10-10T22:15:40.134Z,100827.13
2023-10-10T22:18:43.354Z,100821.72
2023-10-10T22:21:46.122Z,100832.66
2023-10-10T22:24:48.501Z,100830.94
2023-10-10T22:27:52.869Z,100829.13
2023-10-10T22:30:55.838Z,100820.09
2023-10-10T22:34:01.571Z,100814.78
2023-10-10T22:37:08.640Z,100816.59
2023-10-10T22:40:12.944Z,100820.16
2023-10-10T22:43:16.681Z,100822.91
2023-10-10T22:46:20.962Z,100807.59
2023-10-10T22:49:23.468Z,100800.47
2023-10-10T22:52:26.093Z,100807.69
2023-10-10T22:55:29.860Z,100800.50
2023-10-10T22:58:32.919Z,100808.66
2023-10-10T23:01:35.367Z,100809.56
2023-10-10T23:04:38.343Z,100805.06
2023-10-10T23:07:46.222Z,100787.97
2023-10-10T23:10:49.926Z,100807.75
2023-10-10T23:13:53.223Z,100799.66
2023-10-10T23:16:56.733Z,100807.72
2023-10-10T23:20:00.267Z,100801.38
2023-10-10T23:23:04.062Z,100795.03
2023-10-10T23:26:06.590Z,100794.97
2023-10-10T23:29:10.159Z,100802.19
2023-10-10T23:32:13.195Z,100805.78
2023-10-10T23:35:16.266Z,100805.91
2023-10-10T23:38:20.811Z,100806.72
2023-10-10T23:41:23.733Z,100804.03
2023-10-10T23:44:28.716Z,100798.66
2023-10-10T23:47:31.496Z,100800.44
2023-10-10T23:50:40.109Z,100804.03
2023-10-10T23:53:42.796Z,100817.50
2023-10-10T23:56:50.019Z,100811.19
2023-10-10T23:59:53.116Z,100807.59
